createdAt,value
2023-04-05T00:01:15.993Z,99861.16
2023-04-05T00:03:44.314Z,99855.22
2023-04-05T00:06:13.523Z,99853.44
2023-04-05T00:08:41.936Z,99847.47
2023-04-05T00:11:10.442Z,99845.13
2023-04-05T00:13:38.784Z,99841.75
2023-04-05T00:16:07.696Z,99834.84
2023-04-05T00:18:38.613Z,99838.25
2023-04-05T00:21:07.125Z,99834.09
2023-04-05T00:23:39.941Z,99835.63
2023-04-05T00:26:09.011Z,99834.09
2023-04-05T00:28:38.126Z,99835.06
2023-04-05T00:31:07.149Z,99834.28
2023-04-05T00:33:35.554Z,99832.53
2023-04-05T00:36:17.557Z,99829.84
2023-04-05T00:38:48.418Z,99831.13
2023-04-05T00:41:16.994Z,99837.47
2023-04-05T00:43:45.254Z,99834.31
2023-04-05T00:46:13.847Z,99844.63
2023-04-05T00:48:42.197Z,99838.78
2023-04-05T00:51:11.965Z,99843.28
2023-04-05T00:53:43.201Z,99844.22
2023-04-05T00:56:13.890Z,99849.56
2023-04-05T00:58:42.908Z,99850.69
2023-04-05T01:01:18.832Z,99849.69
2023-04-05T01:04:03.126Z,99847.28
2023-04-05T01:07:24.050Z,99851.59
2023-04-05T01:10:00.811Z,99846.41
2023-04-05T01:12:33.655Z,99845.53
2023-04-05T01:15:05.095Z,99835.06
2023-04-05T01:17:37.122Z,99842.88
2023-04-05T01:20:11.873Z,99840.03
2023-04-05T01:23:31.259Z,99837.44
2023-04-05T01:26:46.531Z,99840.72
2023-04-05T01:29:45.018Z,99842.47
2023-04-05T01:32:49.524Z,99829.56
2023-04-05T01:35:39.637Z,99827.88
2023-04-05T01:38:12.512Z,99829.44
2023-04-05T01:40:42.337Z,99832.09
2023-04-05T01:43:17.926Z,99839.03
2023-04-05T01:45:47.238Z,99833.94
2023-04-05T01:48:16.416Z,99839.19
2023-04-05T01:50:44.504Z,99836.44
2023-04-05T01:53:12.976Z,99836.09
2023-04-05T01:55:41.472Z,99834.84
2023-04-05T01:58:10.268Z,99830.91
2023-04-05T02:00:39.403Z,99835.06
2023-04-05T02:03:07.736Z,99831.06
2023-04-05T02:05:35.813Z,99837.13
2023-04-05T02:08:04.266Z,99835.78
2023-04-05T02:10:32.442Z,99839.31
2023-04-05T02:13:00.514Z,99834.41
2023-04-05T02:15:28.648Z,99838.22
2023-04-05T02:18:02.369Z,99835.31
2023-04-05T02:20:31.087Z,99836.81
2023-04-05T02:23:00.735Z,99837.72
2023-04-05T02:25:30.109Z,99832.25
2023-04-05T02:27:58.943Z,99838.69
2023-04-05T02:30:29.242Z,99837.44
2023-04-05T02:32:57.608Z,99833.97
2023-04-05T02:35:26.048Z,99829.81
2023-04-05T02:37:54.238Z,99832.97
2023-04-05T02:40:23.564Z,99827.22
2023-04-05T02:42:51.769Z,99828.16
2023-04-05T02:45:19.827Z,99831.78
2023-04-05T02:47:49.338Z,99827.72
2023-04-05T02:50:21.014Z,99834.69
2023-04-05T02:52:50.076Z,99836.63
2023-04-05T02:55:19.533Z,99839.44
2023-04-05T02:57:47.914Z,99830.97
2023-04-05T03:00:41.129Z,99829.38
2023-04-05T03:03:11.530Z,99825.25
2023-04-05T03:05:43.442Z,99832.16
2023-04-05T03:08:19.898Z,99824.50
2023-04-05T03:10:59.372Z,99817.75
2023-04-05T03:13:27.655Z,99825.31
2023-04-05T03:15:56.725Z,99820.88
2023-04-05T03:18:30.503Z,99811.31
2023-04-05T03:21:06.163Z,99819.78
2023-04-05T03:23:39.868Z,99815.31
2023-04-05T03:26:07.957Z,99820.75
2023-04-05T03:28:45.399Z,99823.44
2023-04-05T03:41:05.322Z,99822.69
2023-04-05T03:43:33.953Z,99816.75
2023-04-05T03:46:03.417Z,99823.69
2023-04-05T03:48:32.102Z,99819.34
2023-04-05T03:51:00.103Z,99820.94
2023-04-05T03:53:29.664Z,99825.50
2023-04-05T03:56:00.848Z,99832.03
2023-04-05T03:58:46.240Z,99815.75
2023-04-05T04:01:16.943Z,99827.38
2023-04-05T04:03:45.232Z,99828.25
2023-04-05T04:06:15.430Z,99822.09
2023-04-05T04:08:45.791Z,99832.50
2023-04-05T04:11:14.130Z,99824.63
2023-04-05T04:13:43.502Z,99833.97
2023-04-05T04:16:28.241Z,99827.44
2023-04-05T04:19:00.565Z,99830.91
2023-04-05T04:21:32.995Z,99829.25
2023-04-05T04:24:21.892Z,99829.91
2023-04-05T04:26:55.922Z,99822.94
2023-04-05T04:29:47.092Z,99833.38
2023-04-05T04:32:59.194Z,99832.31
2023-04-05T04:35:47.341Z,99824.63
2023-04-05T04:38:35.234Z,99833.06
2023-04-05T04:41:27.146Z,99834.66
2023-04-05T04:44:24.556Z,99840.22
2023-04-05T04:47:23.082Z,99838.13
2023-04-05T04:50:16.306Z,99844.13
2023-04-05T04:52:44.214Z,99844.88
2023-04-05T04:55:16.013Z,99844.59
2023-04-05T04:57:52.402Z,99849.94
2023-04-05T05:00:22.517Z,99851.19
2023-04-05T05:02:52.690Z,99857.75
2023-04-05T05:05:24.016Z,99854.97
2023-04-05T05:07:52.973Z,99851.31
2023-04-05T05:10:21.634Z,99853.63
2023-04-05T05:12:49.838Z,99855.00
2023-04-05T05:16:34.021Z,99858.91
2023-04-05T05:19:03.298Z,99861.72
2023-04-05T05:21:40.759Z,99861.97
2023-04-05T05:24:10.385Z,99865.06
2023-04-05T05:26:42.090Z,99860.63
2023-04-05T05:29:10.021Z,99859.47
2023-04-05T05:31:41.735Z,99857.75
2023-04-05T05:34:09.926Z,99861.53
2023-04-05T05:36:41.167Z,99860.09
2023-04-05T05:39:10.586Z,99864.19
2023-04-05T05:41:41.296Z,99864.19
2023-04-05T05:44:09.313Z,99871.03
2023-04-05T05:46:38.189Z,99860.59
2023-04-05T05:49:06.747Z,99864.91
2023-04-05T05:51:36.202Z,99861.84
2023-04-05T05:54:05.667Z,99865.50
2023-04-05T05:56:33.760Z,99872.16
2023-04-05T05:59:02.001Z,99864.00
2023-04-05T06:01:30.300Z,99874.03
2023-04-05T06:03:58.321Z,99875.31
2023-04-05T06:06:27.080Z,99867.94
2023-04-05T06:08:55.367Z,99867.81
2023-04-05T06:11:25.451Z,99870.75
2023-04-05T06:13:55.284Z,99858.09
2023-04-05T06:16:23.835Z,99864.63
2023-04-05T06:18:51.961Z,99867.03
2023-04-05T06:21:20.081Z,99882.53
2023-04-05T06:23:48.603Z,99879.34
2023-04-05T06:26:27.082Z,99877.91
2023-04-05T06:28:55.920Z,99876.84
2023-04-05T06:31:36.837Z,99874.84
2023-04-05T06:34:06.141Z,99878.84
2023-04-05T06:36:34.680Z,99881.47
2023-04-05T06:39:03.238Z,99880.50
2023-04-05T06:41:31.943Z,99886.19
2023-04-05T06:44:00.344Z,99881.59
2023-04-05T06:46:29.130Z,99875.84
2023-04-05T06:48:58.769Z,99877.31
2023-04-05T06:51:29.001Z,99876.28
2023-04-05T06:53:57.283Z,99875.31
2023-04-05T06:56:25.879Z,99870.91
2023-04-05T06:58:54.350Z,99873.47
2023-04-05T07:01:22.377Z,99877.38
2023-04-05T07:03:51.087Z,99874.56
2023-04-05T07:06:19.126Z,99873.28
2023-04-05T07:08:47.353Z,99875.97
2023-04-05T07:11:15.883Z,99877.69
2023-04-05T07:13:43.874Z,99878.97
2023-04-05T07:16:11.972Z,99882.53
2023-04-05T07:18:40.499Z,99876.97
2023-04-05T07:21:08.588Z,99882.78
2023-04-05T07:23:36.841Z,99878.81
2023-04-05T07:26:06.168Z,99880.22
2023-04-05T07:28:36.079Z,99875.59
2023-04-05T07:31:07.511Z,99881.00
2023-04-05T07:33:35.686Z,99875.97
2023-04-05T07:36:04.041Z,99878.25
2023-04-05T07:38:32.463Z,99881.69
2023-04-05T07:41:00.882Z,99875.22
2023-04-05T07:43:29.177Z,99873.50
2023-04-05T07:46:04.784Z,99883.69
2023-04-05T07:48:33.113Z,99869.72
2023-04-05T07:51:10.357Z,99876.69
2023-04-05T07:53:38.873Z,99867.81
2023-04-05T07:56:08.785Z,99870.19
2023-04-05T07:58:41.687Z,99864.81
2023-04-05T08:01:11.604Z,99858.34
2023-04-05T08:03:40.339Z,99857.00
2023-04-05T08:06:19.680Z,99851.25
2023-04-05T08:08:48.363Z,99849.38
2023-04-05T08:11:16.698Z,99852.97
2023-04-05T08:13:45.321Z,99852.78
2023-04-05T08:16:13.661Z,99858.34
2023-04-05T08:18:42.165Z,99860.19
2023-04-05T08:21:10.890Z,99853.88
2023-04-05T08:23:39.410Z,99854.25
2023-04-05T08:26:08.061Z,99847.88
2023-04-05T08:28:37.510Z,99845.53
2023-04-05T08:31:06.274Z,99842.06
2023-04-05T08:33:34.548Z,99846.13
2023-04-05T08:36:10.207Z,99824.38
2023-04-05T08:38:38.885Z,99827.78
2023-04-05T08:41:20.033Z,99833.31
2023-04-05T08:44:02.782Z,99838.94
2023-04-05T08:46:35.361Z,99827.94
2023-04-05T08:49:08.370Z,99827.63
2023-04-05T08:51:39.967Z,99815.34
2023-04-05T08:54:08.402Z,99822.94
2023-04-05T08:56:37.389Z,99820.56
2023-04-05T08:59:06.936Z,99813.75
2023-04-05T09:01:44.272Z,99815.63
2023-04-05T09:04:27.561Z,99820.41
2023-04-05T09:06:59.495Z,99808.59
2023-04-05T09:09:33.376Z,99801.03
2023-04-05T09:12:03.773Z,99795.16
2023-04-05T09:14:34.801Z,99802.66
2023-04-05T09:17:04.831Z,99800.19
2023-04-05T09:19:32.870Z,99800.69
2023-04-05T09:22:08.589Z,99785.00
2023-04-05T09:24:44.272Z,99795.63
2023-04-05T09:27:19.403Z,99792.03
2023-04-05T09:29:54.654Z,99791.28
2023-04-05T09:32:29.773Z,99797.84
2023-04-05T09:35:02.486Z,99789.13
2023-04-05T09:37:33.135Z,99783.66
2023-04-05T09:40:07.654Z,99794.66
2023-04-05T09:42:47.672Z,99761.53
2023-04-05T09:45:18.456Z,99784.78
2023-04-05T09:47:58.448Z,99786.53
2023-04-05T09:50:26.929Z,99779.50
2023-04-05T09:53:29.816Z,99778.13
2023-04-05T09:56:11.197Z,99779.69
2023-04-05T09:58:42.877Z,99780.09
2023-04-05T10:01:16.829Z,99784.38
2023-04-05T10:03:50.310Z,99772.56
2023-04-05T10:06:18.740Z,99752.47
2023-04-05T10:08:48.846Z,99767.53
2023-04-05T10:11:21.240Z,99769.53
2023-04-05T10:13:50.932Z,99770.16
2023-04-05T10:16:26.199Z,99760.28
2023-04-05T10:18:54.723Z,99764.34
2023-04-05T10:21:28.878Z,99761.69
2023-04-05T10:24:44.117Z,99744.13
2023-04-05T10:27:28.456Z,99752.03
2023-04-05T10:30:09.332Z,99742.34
2023-04-05T10:33:14.496Z,99748.00
2023-04-05T10:36:12.735Z,99748.94
2023-04-05T10:39:20.374Z,99743.41
2023-04-05T10:41:53.268Z,99743.03
2023-04-05T10:44:26.182Z,99729.25
2023-04-05T10:46:56.495Z,99730.59
2023-04-05T10:49:40.508Z,99734.22
2023-04-05T10:52:09.539Z,99735.63
2023-04-05T10:54:40.619Z,99731.81
2023-04-05T10:57:10.903Z,99722.84
2023-04-05T10:59:45.903Z,99719.28
2023-04-05T11:02:15.796Z,99705.38
2023-04-05T11:04:44.356Z,99704.69
2023-04-05T11:07:20.127Z,99705.25
2023-04-05T11:09:55.465Z,99701.91
2023-04-05T11:12:56.355Z,99698.59
2023-04-05T11:15:32.825Z,99720.41
2023-04-05T11:18:32.969Z,99708.56
2023-04-05T11:21:08.141Z,99703.63
2023-04-05T11:24:07.809Z,99708.00
2023-04-05T11:26:44.868Z,99685.03
2023-04-05T11:29:12.898Z,99679.00
2023-04-05T11:32:06.330Z,99687.22
2023-04-05T11:34:37.924Z,99691.63
2023-04-05T11:37:05.948Z,99719.53
2023-04-05T11:39:34.309Z,99708.25
2023-04-05T11:42:10.381Z,99700.19
2023-04-05T11:44:53.307Z,99702.19
2023-04-05T11:47:22.151Z,99701.72
2023-04-05T11:49:51.491Z,99691.72
2023-04-05T11:52:23.050Z,99693.63
2023-04-05T11:54:52.353Z,99692.81
2023-04-05T11:57:23.351Z,99672.47
2023-04-05T11:59:54.077Z,99676.28
2023-04-05T12:02:22.730Z,99652.53
2023-04-05T12:04:58.596Z,99673.59
2023-04-05T12:07:29.763Z,99670.41
2023-04-05T12:10:16.256Z,99671.91
2023-04-05T12:12:45.567Z,99677.88
2023-04-05T12:15:18.285Z,99668.44
2023-04-05T12:17:54.770Z,99660.22
2023-04-05T12:20:25.889Z,99657.09
2023-04-05T12:22:56.907Z,99676.81
2023-04-05T12:25:26.494Z,99673.19
2023-04-05T12:27:55.205Z,99667.97
2023-04-05T12:30:25.225Z,99667.16
2023-04-05T12:32:57.987Z,99661.81
2023-04-05T12:35:34.935Z,99659.25
2023-04-05T12:38:06.819Z,99661.13
2023-04-05T12:40:36.693Z,99656.22
2023-04-05T12:43:09.676Z,99661.41
2023-04-05T12:45:42.546Z,99652.16
2023-04-05T12:48:14.448Z,99654.25
2023-04-05T12:50:45.622Z,99649.75
2023-04-05T12:53:20.711Z,99651.88
2023-04-05T12:55:56.025Z,99657.97
2023-04-05T12:58:35.321Z,99648.66
2023-04-05T13:01:07.331Z,99641.34
2023-04-05T13:03:36.890Z,99643.44
2023-04-05T13:06:05.850Z,99655.72
2023-04-05T13:08:34.327Z,99644.75
2023-04-05T13:11:04.517Z,99652.88
2023-04-05T13:13:34.726Z,99648.97
2023-04-05T13:16:03.612Z,99655.44
2023-04-05T13:18:32.240Z,99665.38
2023-04-05T13:21:00.979Z,99670.97
2023-04-05T13:23:29.472Z,99678.38
2023-04-05T13:25:58.567Z,99692.34
2023-04-05T13:28:27.562Z,99684.25
2023-04-05T13:30:56.273Z,99678.47
2023-04-05T13:33:25.324Z,99677.84
2023-04-05T13:35:53.584Z,99674.13
2023-04-05T13:38:22.162Z,99675.63
2023-04-05T13:40:50.589Z,99661.19
2023-04-05T13:43:19.459Z,99672.47
2023-04-05T13:45:47.858Z,99675.63
2023-04-05T13:48:17.404Z,99674.09
2023-04-05T13:50:47.450Z,99669.88
2023-04-05T13:53:17.040Z,99676.25
2023-04-05T13:55:45.616Z,99657.75
2023-04-05T13:58:14.729Z,99648.25
2023-04-05T14:00:43.333Z,99650.50
2023-04-05T14:03:12.609Z,99655.63
2023-04-05T14:05:41.401Z,99654.22
2023-04-05T14:08:10.272Z,99658.47
2023-04-05T14:10:39.568Z,99651.16
2023-04-05T14:13:08.143Z,99644.19
2023-04-05T14:15:37.086Z,99664.53
2023-04-05T14:18:07.421Z,99657.28
2023-04-05T14:20:36.394Z,99649.03
2023-04-05T14:23:05.190Z,99654.84
2023-04-05T14:25:34.075Z,99651.81
2023-04-05T14:28:02.556Z,99654.22
2023-04-05T14:30:31.549Z,99652.22
2023-04-05T14:32:59.966Z,99672.66
2023-04-05T14:35:28.645Z,99672.88
2023-04-05T14:37:58.324Z,99655.16
2023-04-05T14:40:27.080Z,99651.53
2023-04-05T14:42:56.300Z,99659.81
2023-04-05T14:45:28.087Z,99662.56
2023-04-05T14:47:56.787Z,99659.09
2023-04-05T14:50:25.557Z,99660.03
2023-04-05T14:52:55.000Z,99655.94
2023-04-05T14:55:23.634Z,99661.84
2023-04-05T14:57:51.942Z,99663.19
2023-04-05T15:00:21.832Z,99655.38
2023-04-05T15:02:50.668Z,99664.63
2023-04-05T15:05:19.567Z,99658.44
2023-04-05T15:07:48.357Z,99663.97
2023-04-05T15:10:18.817Z,99674.00
2023-04-05T15:12:47.081Z,99676.53
2023-04-05T15:15:19.120Z,99682.97
2023-04-05T15:17:47.616Z,99676.88
2023-04-05T15:20:16.468Z,99684.47
2023-04-05T15:22:45.200Z,99680.25
2023-04-05T15:25:14.617Z,99676.53
2023-04-05T15:27:43.167Z,99680.47
2023-04-05T15:30:14.338Z,99692.44
2023-04-05T15:32:42.964Z,99686.63
2023-04-05T15:35:11.794Z,99678.47
2023-04-05T15:37:41.114Z,99691.94
2023-04-05T15:41:33.681Z,99696.56
2023-04-05T15:44:04.117Z,99696.03
2023-04-05T15:46:32.867Z,99689.91
2023-04-05T15:49:01.597Z,99683.03
2023-04-05T15:51:30.670Z,99680.78
2023-04-05T15:53:59.048Z,99674.88
2023-04-05T15:56:27.945Z,99670.41
2023-04-05T15:58:57.608Z,99677.88
2023-04-05T16:01:26.024Z,99686.63
2023-04-05T16:03:54.252Z,99683.81
2023-04-05T16:06:28.479Z,99687.72
2023-04-05T16:08:56.822Z,99691.38
2023-04-05T16:11:25.708Z,99689.88
2023-04-05T16:13:57.241Z,99696.13
2023-04-05T16:16:35.278Z,99694.94
2023-04-05T16:19:13.965Z,99698.63
2023-04-05T16:21:42.335Z,99707.88
2023-04-05T16:24:11.487Z,99710.13
2023-04-05T16:26:39.701Z,99699.44
2023-04-05T16:29:08.095Z,99702.34
2023-04-05T16:31:37.089Z,99707.50
2023-04-05T16:34:05.490Z,99702.38
2023-04-05T16:36:33.847Z,99711.00
2023-04-05T16:39:02.448Z,99717.50
2023-04-05T16:41:30.998Z,99707.44
2023-04-05T16:43:59.008Z,99706.97
2023-04-05T16:46:30.842Z,99708.38
2023-04-05T16:49:00.967Z,99705.09
2023-04-05T16:51:29.458Z,99717.50
2023-04-05T16:53:57.688Z,99714.09
2023-04-05T16:56:26.165Z,99710.19
2023-04-05T16:58:55.221Z,99717.22
2023-04-05T17:01:24.582Z,99715.91
2023-04-05T17:03:53.141Z,99725.34
2023-04-05T17:06:21.703Z,99726.41
2023-04-05T17:08:50.023Z,99717.84
2023-04-05T17:11:18.913Z,99728.06
2023-04-05T17:13:47.669Z,99730.69
2023-04-05T17:16:16.927Z,99721.22
2023-04-05T17:18:45.628Z,99730.78
2023-04-05T17:21:14.109Z,99739.31
2023-04-05T17:23:42.841Z,99744.69
2023-04-05T17:26:11.638Z,99730.41
2023-04-05T17:28:39.981Z,99736.50
2023-04-05T17:31:08.325Z,99732.28
2023-04-05T17:33:37.632Z,99728.06
2023-04-05T17:36:06.628Z,99734.50
2023-04-05T17:38:35.379Z,99741.91
2023-04-05T17:41:04.252Z,99740.28
2023-04-05T17:43:32.695Z,99745.91
2023-04-05T17:46:01.309Z,99759.13
2023-04-05T17:48:30.720Z,99752.47
2023-04-05T17:51:05.354Z,99754.13
2023-04-05T17:53:34.708Z,99763.28
2023-04-05T17:56:03.838Z,99765.75
2023-04-05T17:58:32.778Z,99771.75
2023-04-05T18:01:02.008Z,99780.47
2023-04-05T18:03:30.923Z,99778.47
2023-04-05T18:06:00.305Z,99773.31
2023-04-05T18:08:29.492Z,99783.13
2023-04-05T18:10:59.327Z,99781.53
2023-04-05T18:13:28.731Z,99777.72
2023-04-05T18:16:00.766Z,99788.66
2023-04-05T18:18:29.186Z,99778.25
2023-04-05T18:21:03.392Z,99780.63
2023-04-05T18:23:31.824Z,99784.84
2023-04-05T18:26:10.525Z,99778.66
2023-04-05T18:28:39.305Z,99792.03
2023-04-05T18:31:12.038Z,99793.09
2023-04-05T18:33:41.096Z,99806.00
2023-04-05T18:36:09.728Z,99803.72
2023-04-05T18:38:41.639Z,99807.59
2023-04-05T18:41:11.833Z,99805.22
2023-04-05T18:43:40.786Z,99802.84
2023-04-05T18:46:09.204Z,99813.16
2023-04-05T18:48:39.666Z,99809.69
2023-04-05T18:51:08.548Z,99812.06
2023-04-05T18:53:37.917Z,99813.09
2023-04-05T18:56:06.663Z,99809.69
2023-04-05T18:58:38.127Z,99812.31
2023-04-05T19:01:09.970Z,99808.25
2023-04-05T19:03:39.669Z,99809.31
2023-04-05T19:06:07.979Z,99815.41
2023-04-05T19:08:37.111Z,99816.41
2023-04-05T19:11:07.519Z,99812.09
2023-04-05T19:13:36.711Z,99814.03
2023-04-05T19:16:05.882Z,99819.03
2023-04-05T19:18:34.579Z,99816.66
2023-04-05T19:21:03.174Z,99809.81
2023-04-05T19:23:31.867Z,99815.75
2023-04-05T19:26:00.804Z,99813.16
2023-04-05T19:28:32.304Z,99817.50
2023-04-05T19:31:01.038Z,99819.19
2023-04-05T19:33:31.915Z,99817.41
2023-04-05T19:36:01.453Z,99822.31
2023-04-05T19:38:30.070Z,99818.97
2023-04-05T19:40:58.885Z,99827.72
2023-04-05T19:43:31.861Z,99830.97
2023-04-05T19:46:00.971Z,99831.81
2023-04-05T19:48:46.172Z,99828.69
2023-04-05T19:51:18.221Z,99824.50
2023-04-05T19:53:51.945Z,99829.06
2023-04-05T19:56:31.192Z,99830.13
2023-04-05T19:59:25.076Z,99831.22
2023-04-05T20:02:10.952Z,99833.84
2023-04-05T20:04:40.079Z,99826.53
2023-04-05T20:07:09.066Z,99829.06
2023-04-05T20:09:40.529Z,99827.38
2023-04-05T20:12:09.699Z,99823.13
2023-04-05T20:14:46.768Z,99822.22
2023-04-05T20:17:18.629Z,99823.97
2023-04-05T20:20:00.944Z,99824.97
2023-04-05T20:22:32.655Z,99819.59
2023-04-05T20:25:32.461Z,99824.84
2023-04-05T20:28:01.158Z,99811.03
2023-04-05T20:30:31.866Z,99810.50
2023-04-05T20:33:02.741Z,99812.50
2023-04-05T20:35:35.302Z,99807.50
2023-04-05T20:38:04.446Z,99812.22
2023-04-05T20:40:33.949Z,99816.91
2023-04-05T20:43:03.898Z,99812.75
2023-04-05T20:45:32.763Z,99818.22
2023-04-05T20:48:02.587Z,99811.34
2023-04-05T20:50:31.312Z,99813.03
2023-04-05T20:53:00.062Z,99805.19
2023-04-05T20:55:28.842Z,99799.31
2023-04-05T20:57:57.739Z,99804.34
2023-04-05T21:00:26.439Z,99808.56
2023-04-05T21:02:56.798Z,99804.28
2023-04-05T21:05:25.397Z,99802.44
2023-04-05T21:07:54.969Z,99807.75
2023-04-05T21:10:23.203Z,99805.94
2023-04-05T21:12:53.304Z,99804.97
2023-04-05T21:15:22.816Z,99795.63
2023-04-05T21:17:51.342Z,99804.28
2023-04-05T21:20:19.556Z,99798.94
2023-04-05T21:22:47.910Z,99802.19
2023-04-05T21:25:16.007Z,99800.78
2023-04-05T21:27:44.221Z,99798.03
2023-04-05T21:30:13.754Z,99794.88
2023-04-05T21:32:41.844Z,99795.56
2023-04-05T21:35:11.632Z,99788.31
2023-04-05T21:37:42.671Z,99793.41
2023-04-05T21:40:11.747Z,99792.56
2023-04-05T21:42:40.237Z,99777.06
2023-04-05T21:45:10.100Z,99779.06
2023-04-05T21:47:38.970Z,99776.53
2023-04-05T21:50:08.838Z,99781.31
2023-04-05T21:52:37.544Z,99772.69
2023-04-05T21:55:06.583Z,99777.06
2023-04-05T21:57:35.201Z,99768.06
2023-04-05T22:00:07.427Z,99770.84
2023-04-05T22:02:41.527Z,99774.41
2023-04-05T22:05:11.151Z,99775.91
2023-04-05T22:07:39.532Z,99765.53
2023-04-05T22:10:09.197Z,99771.84
2023-04-05T22:12:38.210Z,99767.16
2023-04-05T22:15:08.358Z,99767.38
2023-04-05T22:17:36.928Z,99761.13
2023-04-05T22:20:06.294Z,99752.44
2023-04-05T22:22:35.146Z,99747.34
2023-04-05T22:25:03.971Z,99755.13
2023-04-05T22:27:32.306Z,99750.16
2023-04-05T22:30:01.669Z,99746.75
2023-04-05T22:32:29.923Z,99752.91
2023-04-05T22:34:58.470Z,99746.06
2023-04-05T22:37:26.789Z,99748.97
2023-04-05T22:39:55.030Z,99747.81
2023-04-05T22:42:24.169Z,99754.22
2023-04-05T22:44:52.248Z,99741.28
2023-04-05T22:47:21.435Z,99749.81
2023-04-05T22:49:50.113Z,99748.97
2023-04-05T22:52:18.152Z,99742.84
2023-04-05T22:54:46.564Z,99743.59
2023-04-05T22:57:14.872Z,99738.66
2023-04-05T22:59:44.134Z,99739.44
2023-04-05T23:02:12.647Z,99744.59
2023-04-05T23:04:41.404Z,99744.59
2023-04-05T23:07:09.536Z,99741.28
2023-04-05T23:09:38.496Z,99736.06
2023-04-05T23:12:07.175Z,99737.13
2023-04-05T23:14:35.338Z,99730.19
2023-04-05T23:17:05.058Z,99737.13
2023-04-05T23:19:33.784Z,99722.44
2023-04-05T23:22:02.041Z,99727.41
2023-04-05T23:24:30.539Z,99726.50
2023-04-05T23:26:58.658Z,99725.66
2023-04-05T23:29:26.823Z,99729.75
2023-04-05T23:31:55.084Z,99724.34
2023-04-05T23:34:23.234Z,99721.13
2023-04-05T23:36:51.368Z,99720.03
2023-04-05T23:39:20.111Z,99715.72
2023-04-05T23:41:48.403Z,99722.66
2023-04-05T23:44:16.535Z,99713.00
2023-04-05T23:46:44.885Z,99719.97
2023-04-05T23:49:13.842Z,99722.50
2023-04-05T23:51:42.022Z,99713.00
2023-04-05T23:54:10.602Z,99712.78
2023-04-05T23:56:39.203Z,99705.75
2023-04-05T23:59:07.867Z,99705.75
